Time;durP1;ratioP1;P1;durP2;ratioP2;P2;SDS_P1;SDS_P2;PMS_P1;PMS_P2;Temp;Humidity;BMP_temperature;BMP_pressure;BME280_temperature;BME280_humidity;BME280_pressure;Samples;Min_cycle;Max_cycle;Signal;HPM_P1;HPM_P2
2023/12/11 00:01:23;;;;;;;548.75;182.50;;;1.50;99.90;;;;;;5038531;28;20045;-53
2023/12/11 00:03:48;;;;;;;418.88;149.93;;;1.60;99.90;;;;;;5038353;28;20021;-53
2023/12/11 00:06:14;;;;;;;343.92;127.30;;;1.60;99.90;;;;;;5038353;28;20427;-53
2023/12/11 00:08:40;;;;;;;410.30;141.07;;;1.60;99.90;;;;;;5038322;28;20041;-53
2023/12/11 00:11:08;;;;;;;359.90;126.45;;;1.70;99.90;;;;;;5038221;28;20073;-53
2023/12/11 00:13:34;;;;;;;315.52;115.05;;;1.90;99.90;;;;;;5038232;28;20037;-53
2023/12/11 00:16:00;;;;;;;305.10;113.97;;;2.00;99.90;;;;;;5038264;28;20083;-53
2023/12/11 00:18:26;;;;;;;517.95;146.38;;;2.00;99.90;;;;;;5037906;28;20026;-53
2023/12/11 00:20:52;;;;;;;308.48;116.93;;;1.80;99.90;;;;;;5038138;28;20039;-53
2023/12/11 00:23:18;;;;;;;298.98;112.78;;;1.90;99.90;;;;;;5037072;28;20025;-53
2023/12/11 00:25:48;;;;;;;334.38;114.53;;;1.90;99.90;;;;;;5037788;28;20065;-53
2023/12/11 00:28:13;;;;;;;661.92;172.00;;;1.80;99.90;;;;;;5037931;28;20112;-53
2023/12/11 00:30:40;;;;;;;729.33;179.40;;;1.80;99.90;;;;;;5037976;28;20080;-53
2023/12/11 00:33:06;;;;;;;518.25;153.02;;;1.70;99.90;;;;;;5037934;28;20554;-53
2023/12/11 00:35:32;;;;;;;397.10;127.18;;;1.70;99.90;;;;;;5037897;28;20144;-53
2023/12/11 00:37:58;;;;;;;349.67;125.95;;;1.70;99.90;;;;;;5037609;28;20124;-53
2023/12/11 00:40:23;;;;;;;619.55;168.95;;;1.60;99.90;;;;;;5037660;28;20022;-53
2023/12/11 00:42:49;;;;;;;351.23;125.05;;;1.70;99.90;;;;;;5037772;28;20451;-53
2023/12/11 00:45:16;;;;;;;334.20;116.68;;;1.70;99.90;;;;;;5037395;28;20045;-53
2023/12/11 00:47:41;;;;;;;509.10;140.75;;;1.70;99.90;;;;;;5037644;28;20025;-53
2023/12/11 00:50:08;;;;;;;392.05;125.03;;;1.70;99.90;;;;;;5037697;28;20083;-53
2023/12/11 00:52:34;;;;;;;583.28;173.50;;;1.60;99.90;;;;;;5037576;28;20490;-53
2023/12/11 00:54:59;;;;;;;519.35;151.45;;;1.60;99.90;;;;;;5037490;28;20037;-53
2023/12/11 00:57:25;;;;;;;431.23;135.20;;;1.60;99.90;;;;;;5037425;28;20025;-53
2023/12/11 00:59:51;;;;;;;675.08;164.10;;;1.50;99.90;;;;;;5037269;28;20558;-53
2023/12/11 01:02:18;;;;;;;325.83;107.05;;;1.50;99.90;;;;;;5037583;28;20057;-53
2023/12/11 01:04:44;;;;;;;317.27;106.88;;;1.60;99.90;;;;;;5037345;28;20140;-53
2023/12/11 01:07:10;;;;;;;382.25;120.95;;;1.60;99.90;;;;;;5037423;28;20112;-53
2023/12/11 01:09:36;;;;;;;420.00;125.50;;;1.60;99.90;;;;;;5037406;28;20143;-53
2023/12/11 01:12:03;;;;;;;347.80;112.00;;;1.60;99.90;;;;;;5037182;28;20034;-53
2023/12/11 01:14:30;;;;;;;333.50;99.75;;;1.60;99.90;;;;;;5037138;28;20021;-53
2023/12/11 01:16:56;;;;;;;781.08;176.90;;;1.70;99.90;;;;;;5036996;28;20028;-53
2023/12/11 01:19:21;;;;;;;819.92;196.38;;;1.50;99.90;;;;;;5036990;28;20037;-53
2023/12/11 01:21:47;;;;;;;702.45;164.10;;;1.40;99.90;;;;;;5037019;28;20116;-53
2023/12/11 01:24:13;;;;;;;399.92;118.35;;;1.30;99.90;;;;;;5036950;28;20033;-53
2023/12/11 01:26:39;;;;;;;830.70;178.50;;;1.20;99.90;;;;;;5036787;28;20025;-53
2023/12/11 01:29:05;;;;;;;634.58;163.27;;;1.20;99.90;;;;;;5036672;28;20060;-53
2023/12/11 01:31:31;;;;;;;496.50;128.18;;;1.20;99.90;;;;;;5036842;28;20021;-53
2023/12/11 01:33:57;;;;;;;347.60;111.50;;;1.30;99.90;;;;;;5036699;28;20029;-53
2023/12/11 01:36:23;;;;;;;344.05;114.80;;;1.20;99.90;;;;;;5036220;28;20053;-53
2023/12/11 01:38:50;;;;;;;495.85;141.25;;;1.20;99.90;;;;;;5036654;28;20079;-53
2023/12/11 01:41:16;;;;;;;408.05;132.15;;;1.10;99.90;;;;;;5036536;28;20472;-53
2023/12/11 01:43:53;;;;;;;361.52;122.05;;;1.20;99.90;;;;;;5036452;28;20334;-53
2023/12/11 01:46:20;;;;;;;346.60;128.20;;;1.30;99.90;;;;;;5036624;28;20487;-53
2023/12/11 01:48:49;;;;;;;368.48;137.43;;;1.40;99.90;;;;;;5036501;28;20498;-53
2023/12/11 01:51:16;;;;;;;397.42;137.07;;;1.40;99.90;;;;;;5036451;28;20033;-53
2023/12/11 01:53:48;;;;;;;310.98;124.60;;;1.40;99.90;;;;;;5036346;28;20465;-53
2023/12/11 01:56:15;;;;;;;330.13;120.88;;;1.40;99.90;;;;;;5036313;28;20148;-53
2023/12/11 01:58:41;;;;;;;348.10;131.75;;;1.40;99.90;;;;;;5036052;28;20036;-53
2023/12/11 02:01:10;;;;;;;374.08;135.50;;;1.50;99.90;;;;;;5036239;28;20021;-53
2023/12/11 02:03:37;;;;;;;304.50;110.47;;;1.50;99.90;;;;;;5036202;28;20032;-53
2023/12/11 02:06:04;;;;;;;230.43;91.35;;;1.50;99.90;;;;;;5036208;28;20021;-53
2023/12/11 02:08:30;;;;;;;237.25;88.00;;;1.60;99.90;;;;;;5036112;28;20033;-53
2023/12/11 02:10:56;;;;;;;268.15;91.72;;;1.60;99.90;;;;;;5035987;28;20098;-53
2023/12/11 02:13:22;;;;;;;239.68;84.30;;;1.40;99.90;;;;;;5036091;28;20520;-53
2023/12/11 02:15:49;;;;;;;237.52;89.10;;;1.40;99.90;;;;;;5036081;28;20025;-53
2023/12/11 02:18:19;;;;;;;212.32;82.18;;;1.30;99.90;;;;;;5035780;28;20487;-53
2023/12/11 02:20:45;;;;;;;215.45;83.82;;;1.40;99.90;;;;;;5036038;28;20057;-53
2023/12/11 02:23:30;;;;;;;214.75;81.93;;;1.40;99.90;;;;;;5033378;28;20030;-53
2023/12/11 02:26:11;;;;;;;252.20;89.97;;;1.20;99.90;;;;;;5035725;28;20028;-53
2023/12/11 02:28:39;;;;;;;331.48;100.18;;;1.10;99.90;;;;;;5035988;28;20045;-53
2023/12/11 02:31:05;;;;;;;334.60;90.30;;;1.00;99.90;;;;;;5035766;28;20126;-53
2023/12/11 02:33:31;;;;;;;409.17;101.97;;;1.00;99.90;;;;;;5035066;28;20052;-53
2023/12/11 02:35:57;;;;;;;594.13;126.85;;;0.90;99.90;;;;;;5034582;28;20030;-53
2023/12/11 02:38:23;;;;;;;398.90;109.25;;;1.00;99.90;;;;;;5035406;28;20051;-53
2023/12/11 02:40:48;;;;;;;564.78;126.00;;;1.00;99.90;;;;;;5035275;28;20117;-53
2023/12/11 02:43:14;;;;;;;273.17;90.63;;;1.00;99.90;;;;;;5035260;28;20036;-53
2023/12/11 02:45:42;;;;;;;253.23;82.80;;;1.00;99.90;;;;;;5022735;28;20610;-53
2023/12/11 02:48:08;;;;;;;257.23;79.80;;;1.00;99.90;;;;;;5034945;28;20124;-53
2023/12/11 02:50:34;;;;;;;310.25;91.78;;;1.00;99.90;;;;;;5035473;28;20079;-53
2023/12/11 02:53:02;;;;;;;226.43;77.13;;;1.00;99.90;;;;;;5035437;28;20022;-53
2023/12/11 02:55:28;;;;;;;405.35;104.18;;;1.00;99.90;;;;;;5035493;28;20463;-53
2023/12/11 02:57:59;;;;;;;543.53;121.45;;;1.00;99.90;;;;;;5035407;28;20025;-53
2023/12/11 03:00:25;;;;;;;214.27;79.45;;;0.80;99.90;;;;;;5035423;28;20100;-53
2023/12/11 03:02:51;;;;;;;257.15;92.07;;;0.90;99.90;;;;;;5035567;28;20030;-53
2023/12/11 03:05:17;;;;;;;241.48;96.68;;;1.00;99.90;;;;;;5035334;28;20056;-53
2023/12/11 03:07:43;;;;;;;183.10;79.63;;;1.10;99.90;;;;;;5035664;28;20030;-53
2023/12/11 03:10:09;;;;;;;206.10;82.03;;;1.00;99.90;;;;;;5035313;28;20056;-53
2023/12/11 03:12:35;;;;;;;234.88;90.13;;;1.10;99.90;;;;;;5035298;28;20052;-53
2023/12/11 03:15:05;;;;;;;261.58;98.97;;;1.00;99.90;;;;;;5035154;28;20072;-53
2023/12/11 03:17:30;;;;;;;204.10;85.05;;;1.00;99.90;;;;;;5035133;28;20029;-53
2023/12/11 03:19:56;;;;;;;236.65;93.15;;;0.90;99.90;;;;;;5035025;28;20026;-53
2023/12/11 03:22:25;;;;;;;235.00;94.70;;;0.90;99.90;;;;;;5035206;28;20041;-53
2023/12/11 03:24:52;;;;;;;296.48;110.28;;;1.00;99.90;;;;;;5035020;28;20025;-53
2023/12/11 03:27:20;;;;;;;232.73;99.20;;;1.00;99.90;;;;;;5035082;28;20037;-53
2023/12/11 03:29:46;;;;;;;200.07;86.70;;;1.00;99.90;;;;;;5035074;28;20123;-53
2023/12/11 03:32:12;;;;;;;219.18;93.22;;;1.00;99.90;;;;;;5035114;28;20495;-53
2023/12/11 03:34:38;;;;;;;173.55;74.80;;;1.10;99.90;;;;;;5035059;28;20156;-53
2023/12/11 03:37:04;;;;;;;166.02;71.00;;;1.00;99.90;;;;;;5034953;28;20034;-53
2023/12/11 03:39:29;;;;;;;155.20;67.47;;;0.80;99.90;;;;;;5035141;28;20033;-53
2023/12/11 03:41:56;;;;;;;164.45;68.22;;;0.80;99.90;;;;;;5034997;28;20064;-53
2023/12/11 03:44:22;;;;;;;134.32;61.80;;;0.80;99.90;;;;;;5034771;28;20022;-53
2023/12/11 03:46:48;;;;;;;168.80;73.50;;;0.70;99.90;;;;;;5034883;28;20053;-53
2023/12/11 03:49:18;;;;;;;198.85;84.10;;;0.70;99.90;;;;;;5034646;28;20080;-53
2023/12/11 03:51:48;;;;;;;187.45;80.05;;;0.70;99.90;;;;;;5034952;28;20030;-53
2023/12/11 03:54:14;;;;;;;184.45;81.90;;;0.70;99.90;;;;;;5034962;28;20391;-53
2023/12/11 03:56:40;;;;;;;218.45;91.85;;;0.80;99.90;;;;;;5034798;28;20030;-53
2023/12/11 03:59:06;;;;;;;205.95;89.30;;;0.70;99.90;;;;;;5037316;28;20041;-53
2023/12/11 04:01:32;;;;;;;184.40;81.93;;;0.70;99.90;;;;;;5038470;28;20582;-53
2023/12/11 04:03:59;;;;;;;193.13;83.90;;;0.70;99.90;;;;;;5038476;28;20061;-53
2023/12/11 04:06:25;;;;;;;273.33;109.03;;;0.70;99.90;;;;;;5038559;28;20036;-53
2023/12/11 04:08:51;;;;;;;216.20;91.38;;;0.60;99.90;;;;;;5038389;28;20105;-53
2023/12/11 04:11:17;;;;;;;191.93;82.38;;;0.70;99.90;;;;;;5038342;28;20029;-53
2023/12/11 04:13:43;;;;;;;232.27;100.30;;;0.70;99.90;;;;;;5038147;28;20040;-53
2023/12/11 04:16:09;;;;;;;186.90;84.13;;;0.70;99.90;;;;;;5038409;28;20022;-53
2023/12/11 04:18:36;;;;;;;143.73;69.65;;;0.70;99.90;;;;;;5038102;28;20041;-53
2023/12/11 04:21:02;;;;;;;135.68;65.80;;;0.70;99.90;;;;;;5038120;28;20037;-53
2023/12/11 04:23:28;;;;;;;136.25;61.95;;;0.70;99.90;;;;;;5038079;28;20029;-53
2023/12/11 04:25:58;;;;;;;141.68;64.93;;;0.70;99.90;;;;;;5037907;28;20041;-53
2023/12/11 04:28:27;;;;;;;132.18;60.42;;;0.70;99.90;;;;;;5037876;28;20037;-53
2023/12/11 04:30:53;;;;;;;151.70;67.38;;;0.70;99.90;;;;;;5038296;28;20021;-53
2023/12/11 04:33:19;;;;;;;194.18;80.43;;;0.70;99.90;;;;;;5037919;28;20030;-53
2023/12/11 04:35:45;;;;;;;168.93;74.03;;;0.60;99.90;;;;;;5037878;28;20563;-53
2023/12/11 04:38:12;;;;;;;174.70;76.45;;;0.50;99.90;;;;;;5037710;28;20029;-53
2023/12/11 04:40:38;;;;;;;188.45;81.15;;;0.40;99.90;;;;;;5037718;28;20025;-53
2023/12/11 04:43:04;;;;;;;174.65;74.65;;;0.40;99.90;;;;;;5037813;28;20056;-53
2023/12/11 04:45:30;;;;;;;179.35;77.13;;;0.50;99.90;;;;;;5037348;28;20040;-53
2023/12/11 04:47:56;;;;;;;184.15;81.32;;;0.60;99.90;;;;;;5037849;28;20025;-53
2023/12/11 04:50:21;;;;;;;186.45;78.50;;;0.50;99.90;;;;;;5037877;28;20033;-53
2023/12/11 04:52:48;;;;;;;156.00;73.00;;;0.40;99.90;;;;;;5037504;28;20112;-53
2023/12/11 04:55:14;;;;;;;141.10;65.28;;;0.40;99.90;;;;;;5037534;28;20030;-53
2023/12/11 04:57:40;;;;;;;147.40;70.57;;;0.40;99.90;;;;;;5037277;28;20095;-53
2023/12/11 05:00:07;;;;;;;133.35;63.38;;;0.30;99.90;;;;;;5037392;28;20069;-53
2023/12/11 05:02:33;;;;;;;121.35;61.85;;;0.30;99.90;;;;;;5037461;28;20021;-53
2023/12/11 05:04:59;;;;;;;133.48;66.38;;;0.30;99.90;;;;;;5037362;28;20022;-53
2023/12/11 05:07:25;;;;;;;138.45;68.28;;;0.30;99.90;;;;;;5037329;28;20456;-53
2023/12/11 05:09:50;;;;;;;131.15;64.13;;;0.20;99.90;;;;;;5036586;28;20044;-53
2023/12/11 05:12:17;;;;;;;133.90;68.03;;;0.20;99.90;;;;;;5037236;28;20029;-53
2023/12/11 05:14:43;;;;;;;134.55;68.97;;;0.20;99.90;;;;;;5037241;28;20197;-53
2023/12/11 05:17:09;;;;;;;146.02;71.60;;;0.20;99.90;;;;;;5037396;28;20152;-53
2023/12/11 05:19:35;;;;;;;142.77;72.07;;;0.30;99.90;;;;;;5037011;28;20042;-53
2023/12/11 05:22:02;;;;;;;124.60;64.25;;;0.30;99.90;;;;;;5037047;28;20026;-53
2023/12/11 05:24:28;;;;;;;133.68;67.32;;;0.30;99.90;;;;;;5036889;28;20105;-53
2023/12/11 05:26:54;;;;;;;180.18;82.32;;;0.30;99.90;;;;;;5036905;28;20076;-53
2023/12/11 05:29:20;;;;;;;153.90;74.00;;;0.40;99.90;;;;;;5036997;28;20069;-53
2023/12/11 05:31:46;;;;;;;172.48;80.30;;;0.30;99.90;;;;;;5036763;28;20048;-53
2023/12/11 05:34:12;;;;;;;205.82;96.65;;;0.20;99.90;;;;;;5036933;28;20084;-53
2023/12/11 05:36:38;;;;;;;193.27;92.78;;;0.20;99.90;;;;;;5037121;28;20076;-53
2023/12/11 05:39:04;;;;;;;202.40;96.03;;;0.20;99.90;;;;;;5036575;28;20067;-53
2023/12/11 05:41:29;;;;;;;189.30;92.18;;;0.20;99.90;;;;;;5036620;28;20033;-53
2023/12/11 05:43:58;;;;;;;155.77;78.55;;;0.20;99.90;;;;;;5036442;28;20108;-53
2023/12/11 05:46:24;;;;;;;181.60;89.85;;;0.20;99.90;;;;;;5036319;28;20038;-53
2023/12/11 05:48:49;;;;;;;194.23;90.03;;;0.30;99.90;;;;;;5036470;28;20059;-53
2023/12/11 05:51:15;;;;;;;179.77;92.60;;;0.30;99.90;;;;;;5036330;28;20037;-53
2023/12/11 05:53:42;;;;;;;202.85;99.63;;;0.30;99.90;;;;;;5036295;28;20075;-53
2023/12/11 05:56:08;;;;;;;207.95;99.90;;;0.30;99.90;;;;;;5036164;28;20064;-53
2023/12/11 05:58:34;;;;;;;181.63;90.97;;;0.30;99.90;;;;;;5036140;28;20049;-53
2023/12/11 06:01:00;;;;;;;200.23;96.47;;;0.40;99.90;;;;;;5036274;28;20148;-53
2023/12/11 06:03:25;;;;;;;191.30;98.72;;;0.40;99.90;;;;;;5036182;28;20117;-53
2023/12/11 06:05:57;;;;;;;194.77;93.32;;;0.40;99.90;;;;;;5036191;28;20387;-53
2023/12/11 06:08:26;;;;;;;179.73;89.40;;;0.40;99.90;;;;;;5035780;28;20091;-53
2023/12/11 06:10:53;;;;;;;177.82;90.78;;;0.40;99.90;;;;;;5035969;28;20033;-53
2023/12/11 06:13:19;;;;;;;175.20;89.88;;;0.30;99.90;;;;;;5036059;28;20041;-53
2023/12/11 06:15:45;;;;;;;197.25;96.57;;;0.40;99.90;;;;;;5035932;28;20036;-53
2023/12/11 06:18:11;;;;;;;274.42;132.93;;;0.40;99.90;;;;;;5035844;28;20110;-53
2023/12/11 06:20:38;;;;;;;227.13;115.40;;;0.30;99.90;;;;;;5035184;28;20026;-53
2023/12/11 06:23:04;;;;;;;252.07;106.95;;;0.30;99.90;;;;;;5035035;28;20060;-53
2023/12/11 06:25:30;;;;;;;355.55;141.10;;;0.40;99.90;;;;;;5033303;28;20051;-53
2023/12/11 06:27:55;;;;;;;267.55;112.03;;;0.40;99.90;;;;;;5032378;28;20040;-53
2023/12/11 06:30:21;;;;;;;226.50;98.53;;;0.40;99.90;;;;;;5034119;28;20043;-53
2023/12/11 06:32:47;;;;;;;205.75;94.05;;;0.50;99.90;;;;;;5035909;28;20056;-53
2023/12/11 06:35:13;;;;;;;194.73;88.90;;;0.50;99.90;;;;;;5035676;28;20037;-53
2023/12/11 06:37:40;;;;;;;194.23;89.90;;;0.60;99.90;;;;;;5035233;28;20022;-53
2023/12/11 06:40:06;;;;;;;192.30;88.38;;;0.70;99.90;;;;;;5026813;28;20033;-53
2023/12/11 06:42:36;;;;;;;204.77;97.05;;;0.80;99.90;;;;;;5035368;28;20026;-53
2023/12/11 06:45:02;;;;;;;235.52;117.57;;;0.80;99.90;;;;;;5034983;28;20049;-53
2023/12/11 06:47:28;;;;;;;205.95;100.70;;;0.80;99.90;;;;;;5035519;28;20029;-53
2023/12/11 06:49:54;;;;;;;196.63;95.85;;;0.80;99.90;;;;;;5035390;28;20041;-53
2023/12/11 06:52:20;;;;;;;210.05;101.68;;;0.80;99.90;;;;;;5034059;28;20056;-53
2023/12/11 06:54:47;;;;;;;193.90;95.00;;;0.80;99.90;;;;;;5028762;28;20128;-53
2023/12/11 06:57:13;;;;;;;210.85;104.25;;;0.80;99.90;;;;;;5020860;28;20041;-53
2023/12/11 06:59:39;;;;;;;209.52;101.70;;;0.90;99.90;;;;;;5023349;28;20029;-53
2023/12/11 07:02:06;;;;;;;198.98;101.55;;;0.90;99.90;;;;;;5027859;28;20025;-53
2023/12/11 07:04:32;;;;;;;192.73;97.95;;;0.90;99.90;;;;;;5035286;28;20026;-53
2023/12/11 07:06:58;;;;;;;183.60;94.38;;;0.80;99.90;;;;;;5035611;28;20021;-53
2023/12/11 07:09:24;;;;;;;225.93;109.10;;;0.70;99.90;;;;;;5035648;28;20030;-53
2023/12/11 07:11:50;;;;;;;220.63;110.80;;;0.70;99.90;;;;;;5035484;28;20063;-53
2023/12/11 07:14:15;;;;;;;192.73;96.88;;;0.60;99.90;;;;;;5035425;28;20069;-53
2023/12/11 07:16:41;;;;;;;182.85;88.53;;;0.70;99.90;;;;;;5035622;28;20041;-53
2023/12/11 07:19:08;;;;;;;166.95;80.28;;;0.70;99.90;;;;;;5035296;28;20021;-53
2023/12/11 07:21:34;;;;;;;182.18;84.05;;;0.90;99.90;;;;;;5035016;28;20459;-53
2023/12/11 07:24:00;;;;;;;178.43;88.22;;;1.00;99.90;;;;;;5031303;28;20080;-53
2023/12/11 07:26:25;;;;;;;165.48;84.72;;;1.10;99.90;;;;;;5032995;28;20061;-53
2023/12/11 07:28:52;;;;;;;182.88;90.47;;;1.10;99.90;;;;;;5032723;28;20036;-53
2023/12/11 07:31:18;;;;;;;188.85;95.38;;;1.20;99.90;;;;;;5029940;28;20117;-53
2023/12/11 07:33:44;;;;;;;204.13;98.80;;;1.30;99.90;;;;;;5036386;28;20079;-53
2023/12/11 07:36:10;;;;;;;171.02;87.18;;;1.30;99.90;;;;;;5037194;28;20045;-53
2023/12/11 07:38:36;;;;;;;183.57;93.43;;;1.30;99.90;;;;;;5032087;28;20044;-53
2023/12/11 07:41:03;;;;;;;186.95;98.35;;;1.50;99.90;;;;;;5031480;28;20030;-53
2023/12/11 07:43:29;;;;;;;208.60;103.95;;;1.70;99.90;;;;;;5032675;28;20022;-53
2023/12/11 07:45:55;;;;;;;194.75;97.68;;;1.80;99.90;;;;;;5033164;28;20105;-54
2023/12/11 07:48:20;;;;;;;192.23;97.90;;;1.90;99.90;;;;;;5037543;28;20442;-53
2023/12/11 07:50:46;;;;;;;184.00;89.65;;;1.90;99.90;;;;;;5038755;28;20455;-53
2023/12/11 07:53:12;;;;;;;194.60;97.25;;;2.00;99.90;;;;;;5038098;28;20032;-53
2023/12/11 07:55:38;;;;;;;202.85;97.40;;;2.00;99.90;;;;;;5038647;28;20112;-53
2023/12/11 07:58:04;;;;;;;183.13;98.55;;;2.00;99.90;;;;;;5038159;28;20488;-53
2023/12/11 08:00:31;;;;;;;194.48;97.20;;;1.90;99.90;;;;;;5037362;28;20083;-53
2023/12/11 08:02:57;;;;;;;183.35;100.28;;;2.00;99.90;;;;;;5038391;28;20112;-53
2023/12/11 08:05:23;;;;;;;203.40;108.15;;;2.00;99.90;;;;;;5031859;28;20045;-53
2023/12/11 08:07:50;;;;;;;198.48;101.93;;;2.00;99.90;;;;;;5033861;28;20057;-53
2023/12/11 08:10:16;;;;;;;192.30;104.50;;;2.00;99.90;;;;;;5035047;28;20064;-53
2023/12/11 08:12:42;;;;;;;202.68;108.70;;;2.10;99.90;;;;;;5034124;28;20017;-53
2023/12/11 08:15:08;;;;;;;229.73;118.00;;;2.10;99.90;;;;;;5035643;28;20022;-53
2023/12/11 08:17:34;;;;;;;218.65;107.93;;;2.00;99.90;;;;;;5037257;28;20030;-53
2023/12/11 08:20:02;;;;;;;224.43;112.65;;;2.00;99.90;;;;;;5032705;28;20057;-53
2023/12/11 08:22:28;;;;;;;215.48;113.00;;;2.10;99.90;;;;;;5037631;28;20547;-53
2023/12/11 08:24:54;;;;;;;214.55;109.10;;;2.10;99.90;;;;;;5036473;28;20115;-53
2023/12/11 08:27:21;;;;;;;214.55;109.13;;;2.20;99.90;;;;;;5034462;28;20030;-53
2023/12/11 08:29:46;;;;;;;249.35;122.28;;;2.30;99.90;;;;;;5038071;28;20041;-53
2023/12/11 08:32:12;;;;;;;218.20;117.65;;;2.30;99.90;;;;;;5037978;28;20044;-53
2023/12/11 08:34:38;;;;;;;223.70;114.60;;;2.40;99.90;;;;;;5037895;28;20087;-53
2023/12/11 08:37:04;;;;;;;241.93;121.82;;;2.60;99.90;;;;;;5037471;28;20040;-53
2023/12/11 08:39:30;;;;;;;236.10;119.10;;;2.60;99.90;;;;;;5037487;28;20087;-53
2023/12/11 08:41:56;;;;;;;204.98;110.35;;;2.60;99.90;;;;;;5037511;28;20109;-53
2023/12/11 08:44:22;;;;;;;223.05;116.70;;;2.80;99.90;;;;;;5036636;28;20075;-53
2023/12/11 08:46:48;;;;;;;220.10;115.03;;;3.10;99.90;;;;;;5030878;28;20069;-53
2023/12/11 08:49:14;;;;;;;208.43;109.20;;;3.20;99.90;;;;;;5037325;28;20048;-53
2023/12/11 08:51:41;;;;;;;221.63;119.50;;;3.40;99.90;;;;;;5036891;28;20030;-53
2023/12/11 08:54:08;;;;;;;216.77;112.40;;;3.50;99.90;;;;;;5036871;28;20499;-53
2023/12/11 08:56:33;;;;;;;203.20;106.57;;;3.90;99.90;;;;;;5036964;28;20066;-54
2023/12/11 08:59:00;;;;;;;200.32;102.63;;;5.00;99.90;;;;;;5035956;28;20063;-54
2023/12/11 09:01:26;;;;;;;161.85;89.45;;;6.10;99.90;;;;;;5034721;28;20394;-54
2023/12/11 09:03:53;;;;;;;174.40;95.05;;;7.40;99.90;;;;;;5048895;28;20116;-54
2023/12/11 09:06:19;;;;;;;185.95;97.57;;;9.10;97.30;;;;;;5031948;28;20542;-54
2023/12/11 09:08:45;;;;;;;208.65;110.50;;;10.00;94.00;;;;;;5028007;28;20030;-54
2023/12/11 09:11:10;;;;;;;201.40;109.57;;;9.70;91.10;;;;;;5037182;28;20036;-54
2023/12/11 09:13:36;;;;;;;211.45;112.78;;;10.20;93.00;;;;;;5037086;28;20033;-54
2023/12/11 09:16:03;;;;;;;212.38;118.25;;;11.10;88.50;;;;;;5037027;28;20037;-54
2023/12/11 09:18:29;;;;;;;190.05;113.20;;;11.20;83.40;;;;;;5036305;28;20033;-54
2023/12/11 09:20:55;;;;;;;207.90;118.15;;;11.60;83.90;;;;;;5021450;28;20176;-54
2023/12/11 09:23:21;;;;;;;206.18;117.32;;;12.10;79.50;;;;;;5022308;28;20046;-54
2023/12/11 09:25:47;;;;;;;192.77;110.78;;;13.00;81.40;;;;;;5028334;28;20072;-55
2023/12/11 09:28:14;;;;;;;169.50;104.72;;;13.10;74.70;;;;;;5018138;28;20029;-54
2023/12/11 09:30:40;;;;;;;148.35;90.75;;;13.30;73.80;;;;;;5022839;28;20018;-54
2023/12/11 09:33:06;;;;;;;168.02;96.63;;;13.40;70.50;;;;;;5036530;28;20048;-54
2023/12/11 09:35:32;;;;;;;165.07;96.55;;;12.50;72.60;;;;;;5035149;28;20025;-54
2023/12/11 09:37:57;;;;;;;164.10;95.60;;;12.90;73.60;;;;;;5027526;28;20068;-55
2023/12/11 09:40:23;;;;;;;159.40;92.32;;;12.60;70.60;;;;;;5016606;28;20036;-55
2023/12/11 09:42:50;;;;;;;179.73;104.93;;;12.80;68.80;;;;;;5016574;28;20404;-55
2023/12/11 09:45:19;;;;;;;154.65;93.05;;;13.20;71.10;;;;;;5030278;28;20021;-55
2023/12/11 09:47:52;;;;;;;154.00;93.18;;;13.30;72.50;;;;;;5026226;28;20476;-55
2023/12/11 09:50:19;;;;;;;159.05;92.88;;;13.80;70.00;;;;;;5025781;28;20033;-55
2023/12/11 09:52:45;;;;;;;161.27;94.05;;;14.00;68.80;;;;;;5016808;28;20045;-55
2023/12/11 09:55:11;;;;;;;168.07;92.10;;;14.10;66.00;;;;;;5016906;28;20656;-55
2023/12/11 09:57:40;;;;;;;170.50;96.32;;;13.90;67.60;;;;;;5016585;28;20038;-55
2023/12/11 10:00:11;;;;;;;162.45;98.43;;;13.90;70.00;;;;;;5016525;28;20108;-55
2023/12/11 10:02:39;;;;;;;;;;;14.90;63.90;;;;;;5035373;28;20041;-55
2023/12/11 10:05:09;;;;;;;161.38;97.55;;;15.30;60.60;;;;;;5026811;28;19909;-55
2023/12/11 10:07:42;;;;;;;164.63;99.28;;;15.60;61.20;;;;;;5019162;28;20391;-55
2023/12/11 10:10:33;;;;;;;173.13;99.53;;;15.80;60.20;;;;;;5036042;28;20047;-55
2023/12/11 10:13:03;;;;;;;170.13;100.60;;;16.00;60.30;;;;;;5028953;28;20034;-55
2023/12/11 10:15:34;;;;;;;166.02;100.47;;;15.60;59.90;;;;;;5027234;28;20026;-55
2023/12/11 10:18:05;;;;;;;173.98;102.28;;;16.50;58.00;;;;;;5034288;28;20163;-55
2023/12/11 10:20:31;;;;;;;;;;;16.10;59.40;;;;;;5035984;28;20368;-55
2023/12/11 10:22:57;;;;;;;152.45;95.13;;;16.60;57.40;;;;;;5033989;28;19952;-55
2023/12/11 10:25:32;;;;;;;164.35;98.13;;;17.00;55.50;;;;;;5024976;28;20044;-55
2023/12/11 10:28:09;;;;;;;167.13;101.65;;;15.60;56.20;;;;;;5016187;28;20029;-55
2023/12/11 10:30:55;;;;;;;170.27;104.55;;;16.10;60.50;;;;;;5035122;28;20063;-55
2023/12/11 10:33:26;;;;;;;181.05;107.13;;;14.80;60.20;;;;;;5030249;28;20052;-56
2023/12/11 10:36:06;;;;;;;172.77;105.45;;;15.70;60.50;;;;;;5033780;28;20056;-55
2023/12/11 10:38:32;;;;;;;183.05;108.70;;;15.10;60.50;;;;;;5035203;28;20033;-55
2023/12/11 10:40:58;;;;;;;168.13;104.60;;;15.80;59.20;;;;;;5033085;28;20045;-55
2023/12/11 10:43:24;;;;;;;181.05;105.50;;;16.40;59.10;;;;;;5029235;28;20060;-55
2023/12/11 10:45:50;;;;;;;178.60;106.13;;;15.90;59.70;;;;;;5030836;28;20033;-55
2023/12/11 10:48:17;;;;;;;181.88;103.43;;;15.50;61.10;;;;;;5034299;28;20033;-55
2023/12/11 10:50:43;;;;;;;181.63;105.72;;;15.30;59.80;;;;;;5033758;28;20022;-55
2023/12/11 10:53:09;;;;;;;177.32;106.78;;;15.50;59.80;;;;;;5032332;28;20028;-55
2023/12/11 10:55:38;;;;;;;165.23;100.00;;;16.50;59.20;;;;;;5034954;28;20064;-55
2023/12/11 10:58:07;;;;;;;162.63;101.13;;;17.80;55.40;;;;;;5034779;28;20037;-56
2023/12/11 11:00:34;;;;;;;161.50;95.85;;;17.60;54.10;;;;;;5035452;28;20056;-55
2023/12/11 11:03:00;;;;;;;165.70;96.00;;;17.80;53.80;;;;;;5034880;28;20034;-55
2023/12/11 11:05:29;;;;;;;148.15;90.45;;;17.70;52.90;;;;;;5033406;28;20383;-55
2023/12/11 11:08:21;;;;;;;159.32;94.13;;;17.90;52.10;;;;;;5037454;28;20056;-55
2023/12/11 11:10:56;;;;;;;147.65;84.50;;;18.30;53.70;;;;;;5042064;28;20033;-55
2023/12/11 11:13:32;;;;;;;143.70;84.57;;;18.80;49.80;;;;;;5030855;28;20029;-55
2023/12/11 11:15:58;;;;;;;122.55;75.93;;;18.20;49.20;;;;;;5023307;28;20034;-55
2023/12/11 11:18:24;;;;;;;129.13;81.90;;;18.70;47.30;;;;;;5040026;28;20064;-55
2023/12/11 11:21:12;;;;;;;124.93;75.47;;;18.60;46.70;;;;;;5022381;28;20057;-55
2023/12/11 11:23:42;;;;;;;130.55;76.60;;;17.80;48.30;;;;;;5055626;28;20116;-55
2023/12/11 11:26:30;;;;;;;117.63;66.47;;;17.60;50.20;;;;;;5041663;28;20037;-55
2023/12/11 11:28:56;;;;;;;139.55;68.05;;;18.80;47.60;;;;;;5040453;28;20026;-55
2023/12/11 11:31:49;;;;;;;114.15;63.92;;;19.80;45.40;;;;;;5056982;28;20511;-55
2023/12/11 11:34:35;;;;;;;97.30;57.30;;;19.20;44.50;;;;;;5041282;28;20059;-55
2023/12/11 11:37:01;;;;;;;96.15;51.90;;;18.70;42.80;;;;;;5021606;28;20387;-56
2023/12/11 11:40:00;;;;;;;103.60;54.25;;;18.00;45.10;;;;;;5037290;28;20160;-55
2023/12/11 11:42:36;;;;;;;94.38;49.35;;;18.20;41.00;;;;;;5021847;28;20117;-55
2023/12/11 11:45:04;;;;;;;85.25;41.95;;;18.40;42.20;;;;;;5023826;28;20018;-55
2023/12/11 11:47:31;;;;;;;56.08;31.38;;;19.10;40.30;;;;;;5041922;28;20391;-55
2023/12/11 11:50:06;;;;;;;64.13;34.10;;;20.00;34.40;;;;;;5041817;28;20029;-55
2023/12/11 11:52:35;;;;;;;85.03;37.47;;;19.70;35.80;;;;;;5041412;28;20467;-55
2023/12/11 11:55:18;;;;;;;86.18;36.53;;;19.50;35.50;;;;;;5041173;28;20027;-53
2023/12/11 11:57:44;;;;;;;88.93;38.20;;;19.80;35.80;;;;;;5021918;28;20036;-53
2023/12/11 12:00:10;;;;;;;81.90;40.78;;;19.30;35.60;;;;;;5021835;28;20391;-54
2023/12/11 12:02:38;;;;;;;103.90;54.95;;;18.70;38.60;;;;;;5022003;28;20470;-53
2023/12/11 12:05:11;;;;;;;118.00;59.15;;;18.90;39.70;;;;;;5033855;28;20037;-54
2023/12/11 12:07:40;;;;;;;131.43;67.78;;;18.90;40.50;;;;;;5033123;28;20490;-53
2023/12/11 12:10:12;;;;;;;122.63;72.47;;;18.90;46.20;;;;;;5031302;28;20447;-54
2023/12/11 12:12:38;;;;;;;109.63;68.20;;;18.90;45.00;;;;;;5040612;28;20072;-56
2023/12/11 12:15:07;;;;;;;117.72;67.78;;;18.20;46.40;;;;;;5041011;28;20052;-55
2023/12/11 12:17:34;;;;;;;102.43;60.25;;;18.40;47.10;;;;;;5041186;28;20053;-55
2023/12/11 12:20:08;;;;;;;114.68;60.28;;;18.50;43.70;;;;;;5039042;28;20384;-55
2023/12/11 12:22:34;;;;;;;88.63;55.03;;;18.80;44.60;;;;;;5036593;28;20148;-55